createdAt,value
2018-09-30T00:02:29.791Z,101793.09
2018-09-30T00:05:02.603Z,101801.55
2018-09-30T00:07:33.994Z,101808.15
2018-09-30T00:10:06.439Z,101804.45
2018-09-30T00:12:37.386Z,101804.00
2018-09-30T00:15:06.462Z,101804.92
2018-09-30T00:17:36.434Z,101800.16
2018-09-30T00:20:05.364Z,101798.36
2018-09-30T00:22:34.335Z,101797.47
2018-09-30T00:25:16.222Z,101795.12
2018-09-30T00:28:03.856Z,101788.55
2018-09-30T00:30:34.805Z,101790.25
2018-09-30T00:33:06.810Z,101786.55
2018-09-30T00:35:37.813Z,101780.23
2018-09-30T00:38:18.330Z,101780.30
2018-09-30T00:40:47.319Z,101776.14
2018-09-30T00:43:20.434Z,101769.10
2018-09-30T00:45:55.265Z,101768.75
2018-09-30T00:48:37.094Z,101758.01
2018-09-30T00:51:18.297Z,101764.88
2018-09-30T00:53:47.194Z,101754.79
2018-09-30T00:56:17.187Z,101752.23
2018-09-30T00:58:46.211Z,101757.14
2018-09-30T01:01:18.634Z,101749.18
2018-09-30T01:03:47.841Z,101743.88
2018-09-30T01:06:22.555Z,101737.23
2018-09-30T01:08:51.930Z,101732.13
2018-09-30T01:11:21.057Z,101734.75
2018-09-30T01:13:54.901Z,101726.36
2018-09-30T01:16:23.802Z,101718.11
2018-09-30T01:18:52.753Z,101716.41
2018-09-30T01:21:21.807Z,101706.42
2018-09-30T01:23:50.761Z,101704.33
2018-09-30T01:26:20.662Z,101700.86
2018-09-30T01:28:49.591Z,101695.50
2018-09-30T01:31:18.499Z,101690.33
2018-09-30T01:33:53.086Z,101688.53
2018-09-30T01:36:22.035Z,101686.45
2018-09-30T01:39:08.247Z,101681.80
2018-09-30T01:41:41.978Z,101673.78
2018-09-30T01:44:10.971Z,101673.16
2018-09-30T01:46:51.313Z,101671.69
2018-09-30T01:49:20.205Z,101667.73
2018-09-30T01:51:59.146Z,101670.08
2018-09-30T01:54:28.014Z,101657.94
2018-09-30T01:56:57.907Z,101654.11
2018-09-30T01:59:34.518Z,101645.46
2018-09-30T02:02:03.506Z,101640.91
2018-09-30T02:04:44.571Z,101635.29
2018-09-30T02:07:32.198Z,101636.80
2018-09-30T02:10:01.084Z,101640.72
2018-09-30T02:12:29.982Z,101633.80
2018-09-30T02:15:01.123Z,101630.11
2018-09-30T02:17:31.121Z,101628.73
2018-09-30T02:20:00.035Z,101630.34
2018-09-30T02:22:38.892Z,101628.35
2018-09-30T02:25:07.850Z,101628.95
2018-09-30T02:27:53.727Z,101626.37
2018-09-30T02:30:40.518Z,101619.02
2018-09-30T02:33:22.229Z,101616.09
2018-09-30T02:35:51.139Z,101611.74
2018-09-30T02:38:20.033Z,101602.24
2018-09-30T02:40:56.019Z,101610.81
2018-09-30T02:43:31.749Z,101605.68
2018-09-30T02:46:02.664Z,101604.56
2018-09-30T02:48:31.534Z,101600.07
2018-09-30T02:51:00.414Z,101602.37
2018-09-30T02:53:35.881Z,101599.96
2018-09-30T02:56:10.481Z,101596.53
2018-09-30T02:58:55.791Z,101591.89
2018-09-30T03:01:30.625Z,101591.89
2018-09-30T03:03:59.838Z,101588.95
2018-09-30T03:06:37.981Z,101587.84
2018-09-30T03:09:11.953Z,101580.66
2018-09-30T03:11:41.221Z,101578.96
2018-09-30T03:14:12.088Z,101578.82
2018-09-30T03:16:42.597Z,101562.16
2018-09-30T03:19:11.534Z,101566.55
2018-09-30T03:21:40.419Z,101558.33
2018-09-30T03:24:13.377Z,101554.63
2018-09-30T03:26:52.636Z,101555.98
2018-09-30T03:29:26.930Z,101559.56
2018-09-30T03:31:55.824Z,101554.32
2018-09-30T03:34:36.592Z,101548.42
2018-09-30T03:37:05.528Z,101538.92
2018-09-30T03:39:45.850Z,101534.69
2018-09-30T03:42:14.726Z,101534.61
2018-09-30T03:44:43.706Z,101532.42
2018-09-30T03:47:12.626Z,101526.95
2018-09-30T03:50:00.934Z,101533.41
2018-09-30T03:52:29.894Z,101530.05
2018-09-30T03:55:03.465Z,101526.91
2018-09-30T03:57:32.363Z,101533.18
2018-09-30T04:00:01.277Z,101531.91
2018-09-30T04:02:35.256Z,101533.06
2018-09-30T04:05:07.517Z,101532.91
2018-09-30T04:07:52.897Z,101535.14
2018-09-30T04:10:21.770Z,101537.09
2018-09-30T04:12:52.730Z,101544.70
2018-09-30T04:15:26.763Z,101541.44
2018-09-30T04:18:08.723Z,101535.46
2018-09-30T04:20:49.911Z,101532.50
2018-09-30T04:23:19.830Z,101518.62
2018-09-30T04:26:01.071Z,101525.64
2018-09-30T04:28:37.496Z,101527.00
2018-09-30T04:31:06.596Z,101526.46
2018-09-30T04:33:36.474Z,101528.76
2018-09-30T04:39:22.296Z,101522.36
2018-09-30T04:41:52.492Z,101523.26
2018-09-30T04:44:24.886Z,101516.95
2018-09-30T04:46:53.884Z,101510.56
2018-09-30T04:49:22.889Z,101514.03
2018-09-30T04:51:51.867Z,101509.82
2018-09-30T04:54:43.449Z,101512.67
2018-09-30T04:57:18.681Z,101509.28
2018-09-30T04:59:50.835Z,101511.86
2018-09-30T05:02:26.154Z,101515.36
2018-09-30T05:04:55.024Z,101513.25
2018-09-30T05:07:23.934Z,101511.20
2018-09-30T05:09:52.911Z,101506.61
2018-09-30T05:12:21.799Z,101513.61
2018-09-30T05:14:52.745Z,101514.52
2018-09-30T05:17:23.677Z,101514.02
2018-09-30T05:19:55.136Z,101514.59
2018-09-30T05:22:24.156Z,101512.72
2018-09-30T05:24:54.200Z,101511.45
2018-09-30T05:33:15.496Z,101511.91
2018-09-30T05:36:04.317Z,101518.48
2018-09-30T05:38:34.266Z,101527.63
2018-09-30T05:41:03.165Z,101523.34
2018-09-30T05:43:32.160Z,101523.61
2018-09-30T05:46:04.641Z,101520.06
2018-09-30T05:48:44.009Z,101520.61
2018-09-30T05:51:23.745Z,101527.20
2018-09-30T05:53:58.162Z,101526.44
2018-09-30T05:56:29.081Z,101525.30
2018-09-30T05:58:59.991Z,101527.80
2018-09-30T06:01:29.069Z,101524.05
2018-09-30T06:03:58.040Z,101525.39
2018-09-30T06:06:32.010Z,101528.78
2018-09-30T06:09:06.087Z,101529.12
2018-09-30T06:11:37.066Z,101524.05
2018-09-30T06:14:06.174Z,101527.39
2018-09-30T06:19:40.206Z,101522.69
2018-09-30T06:22:16.388Z,101518.89
2018-09-30T06:24:45.387Z,101515.74
2018-09-30T06:27:16.400Z,101516.62
2018-09-30T06:29:49.227Z,101516.38
2018-09-30T06:32:22.174Z,101513.64
2018-09-30T06:34:51.186Z,101515.28
2018-09-30T06:37:21.495Z,101505.31
2018-09-30T06:39:53.974Z,101506.92
2018-09-30T06:42:32.479Z,101503.84
2018-09-30T06:45:07.481Z,101495.23
2018-09-30T06:47:44.146Z,101496.93
2018-09-30T06:50:17.754Z,101506.35
2018-09-30T06:52:47.901Z,101515.13
2018-09-30T06:55:17.837Z,101512.83
2018-09-30T06:57:46.819Z,101516.02
2018-09-30T07:00:16.841Z,101518.75
2018-09-30T07:02:49.409Z,101514.28
2018-09-30T07:05:36.196Z,101512.94
2018-09-30T07:08:07.122Z,101511.11
2018-09-30T07:10:36.010Z,101504.16
2018-09-30T07:13:09.986Z,101503.87
2018-09-30T07:15:45.559Z,101499.77
2018-09-30T07:18:18.713Z,101505.74
2018-09-30T07:20:49.683Z,101507.92
2018-09-30T07:23:34.882Z,101507.55
2018-09-30T07:26:05.854Z,101508.28
2018-09-30T07:28:34.832Z,101501.13
2018-09-30T07:31:04.728Z,101507.20
2018-09-30T07:33:34.698Z,101507.23
2018-09-30T07:36:06.703Z,101504.86
2018-09-30T07:38:35.621Z,101500.67
2018-09-30T07:41:04.612Z,101505.75
2018-09-30T07:43:39.571Z,101504.95
2018-09-30T07:46:08.813Z,101508.80
2018-09-30T07:48:37.783Z,101509.13
2018-09-30T07:51:22.762Z,101502.75
2018-09-30T07:54:02.171Z,101500.91
2018-09-30T07:56:32.324Z,101489.03
2018-09-30T07:59:05.988Z,101493.70
2018-09-30T08:01:38.869Z,101499.84
2018-09-30T08:04:08.003Z,101496.33
2018-09-30T08:06:41.903Z,101485.32
2018-09-30T08:09:11.065Z,101485.03
2018-09-30T08:11:46.429Z,101485.35
2018-09-30T08:14:31.764Z,101486.19
2018-09-30T08:17:07.083Z,101477.69
2018-09-30T08:19:48.356Z,101479.86
2018-09-30T08:22:31.199Z,101490.50
2018-09-30T08:25:02.169Z,101494.75
2018-09-30T08:27:34.523Z,101487.73
2018-09-30T08:30:10.182Z,101486.77
2018-09-30T08:32:43.194Z,101486.50
2018-09-30T08:35:12.153Z,101483.56
2018-09-30T08:37:47.390Z,101484.09
2018-09-30T08:40:32.523Z,101488.36
2018-09-30T08:43:04.657Z,101488.01
2018-09-30T08:45:33.826Z,101482.22
2018-09-30T08:48:03.699Z,101490.22
2018-09-30T08:50:38.249Z,101485.72
2018-09-30T08:53:07.322Z,101486.12
2018-09-30T08:55:46.647Z,101485.61
2018-09-30T08:58:19.059Z,101474.45
2018-09-30T09:00:49.729Z,101479.66
2018-09-30T09:03:20.791Z,101469.50
2018-09-30T09:05:49.934Z,101477.87
2018-09-30T09:08:26.741Z,101476.77
2018-09-30T09:11:07.657Z,101484.64
2018-09-30T09:13:40.957Z,101485.95
2018-09-30T09:16:12.139Z,101482.43
2018-09-30T09:18:47.511Z,101483.43
2018-09-30T09:21:16.510Z,101475.27
2018-09-30T09:23:45.433Z,101477.09
2018-09-30T09:26:14.325Z,101477.80
2018-09-30T09:28:43.266Z,101473.48
2018-09-30T09:31:14.241Z,101476.00
2018-09-30T09:34:01.620Z,101475.74
2018-09-30T09:36:33.732Z,101465.75
2018-09-30T09:39:06.115Z,101463.85
2018-09-30T09:41:35.171Z,101457.95
2018-09-30T09:44:04.268Z,101465.02
2018-09-30T09:46:33.316Z,101468.62
2018-09-30T09:49:02.625Z,101458.89
2018-09-30T09:51:31.621Z,101458.06
2018-09-30T09:54:00.495Z,101445.80
2018-09-30T09:56:35.726Z,101444.67
2018-09-30T09:59:04.739Z,101440.20
2018-09-30T10:01:33.589Z,101440.44
2018-09-30T10:04:10.848Z,101437.70
2018-09-30T10:06:39.770Z,101428.59
2018-09-30T10:09:08.709Z,101423.72
2018-09-30T10:11:37.625Z,101424.84
2018-09-30T10:14:06.620Z,101418.77
2018-09-30T10:16:40.472Z,101414.95
2018-09-30T10:19:09.422Z,101409.84
2018-09-30T10:21:38.538Z,101406.02
2018-09-30T10:24:12.431Z,101414.95
2018-09-30T10:26:46.331Z,101406.75
2018-09-30T10:29:15.403Z,101397.23
2018-09-30T10:31:44.957Z,101383.91
2018-09-30T10:34:14.407Z,101377.73
2018-09-30T10:36:43.323Z,101373.38
2018-09-30T10:39:12.424Z,101369.41
2018-09-30T10:41:41.469Z,101361.43
2018-09-30T10:44:10.481Z,101360.02
2018-09-30T10:46:39.424Z,101350.51
2018-09-30T10:49:09.053Z,101347.63
2018-09-30T10:51:42.437Z,101342.66
2018-09-30T10:54:13.582Z,101345.63
2018-09-30T10:56:42.708Z,101345.52
2018-09-30T10:59:11.580Z,101343.17
2018-09-30T11:01:58.617Z,101340.72
2018-09-30T11:04:27.518Z,101327.91
2018-09-30T11:06:56.406Z,101316.72
2018-09-30T11:09:25.422Z,101320.84
2018-09-30T11:11:58.346Z,101319.13
2018-09-30T11:14:34.648Z,101317.63
2018-09-30T11:17:03.613Z,101309.08
2018-09-30T11:19:32.528Z,101309.25
2018-09-30T11:22:01.517Z,101308.61
2018-09-30T11:24:36.052Z,101305.66
2018-09-30T11:27:06.248Z,101298.53
2018-09-30T11:29:57.881Z,101297.27
2018-09-30T11:32:44.539Z,101297.38
2018-09-30T11:35:17.780Z,101292.16
2018-09-30T11:37:58.014Z,101290.20
2018-09-30T11:40:27.474Z,101294.16
2018-09-30T11:43:01.106Z,101284.43
2018-09-30T11:45:31.119Z,101284.78
2018-09-30T11:48:16.029Z,101289.41
2018-09-30T11:50:44.944Z,101290.77
2018-09-30T11:53:29.863Z,101285.34
2018-09-30T11:56:04.331Z,101282.94
2018-09-30T11:58:44.338Z,101272.58
2018-09-30T12:01:27.461Z,101267.25
2018-09-30T12:03:56.358Z,101267.95
2018-09-30T12:06:25.262Z,101269.59
2018-09-30T12:08:54.490Z,101259.25
2018-09-30T12:11:23.396Z,101263.73
2018-09-30T12:13:52.276Z,101255.50
2018-09-30T12:16:34.636Z,101242.11
2018-09-30T12:19:03.561Z,101231.46
2018-09-30T12:21:32.460Z,101227.76
2018-09-30T12:24:01.382Z,101223.64
2018-09-30T12:26:30.369Z,101217.64
2018-09-30T12:29:17.107Z,101216.52
2018-09-30T12:31:49.318Z,101199.70
2018-09-30T12:34:18.239Z,101196.31
2018-09-30T12:36:47.170Z,101195.01
2018-09-30T12:39:16.443Z,101196.83
2018-09-30T12:41:52.852Z,101196.75
2018-09-30T12:44:21.753Z,101190.27
2018-09-30T12:49:44.199Z,101187.99
2018-09-30T12:52:17.782Z,101182.86
2018-09-30T12:54:56.990Z,101180.64
2018-09-30T12:57:26.980Z,101185.30
2018-09-30T13:00:14.162Z,101178.47
2018-09-30T13:02:49.664Z,101179.87
2018-09-30T13:05:30.924Z,101172.34
2018-09-30T13:07:59.957Z,101170.14
2018-09-30T13:10:28.913Z,101170.69
2018-09-30T13:12:59.924Z,101168.23
2018-09-30T13:15:29.657Z,101166.09
2018-09-30T13:17:59.634Z,101160.16
2018-09-30T13:20:29.702Z,101148.72
2018-09-30T13:23:01.975Z,101151.44
2018-09-30T13:25:32.973Z,101150.01
2018-09-30T13:28:01.940Z,101159.27
2018-09-30T13:30:51.557Z,101153.56
2018-09-30T13:33:20.539Z,101146.50
2018-09-30T13:35:49.505Z,101150.77
2018-09-30T13:38:18.443Z,101146.19
2018-09-30T13:40:48.560Z,101147.05
2018-09-30T13:43:22.003Z,101148.25
2018-09-30T13:46:03.924Z,101152.33
2018-09-30T13:48:34.794Z,101155.71
2018-09-30T13:51:06.031Z,101151.99
2018-09-30T13:53:41.093Z,101147.34
2018-09-30T13:56:32.574Z,101155.30
2018-09-30T13:59:22.348Z,101154.98
2018-09-30T14:01:52.348Z,101162.83
2018-09-30T14:04:25.275Z,101154.14
2018-09-30T14:06:57.406Z,101157.55
2018-09-30T14:09:26.355Z,101144.31
2018-09-30T14:11:58.845Z,101136.88
2018-09-30T14:14:45.608Z,101131.98
2018-09-30T14:17:15.564Z,101126.81
2018-09-30T14:19:52.449Z,101125.73
2018-09-30T14:22:23.641Z,101124.98
2018-09-30T14:24:57.738Z,101122.78
2018-09-30T14:27:40.850Z,101115.64
2018-09-30T14:30:09.805Z,101121.34
2018-09-30T14:32:39.740Z,101124.03
2018-09-30T14:35:11.798Z,101112.80
2018-09-30T14:37:41.791Z,101113.02
2018-09-30T14:40:11.745Z,101108.51
2018-09-30T14:42:41.824Z,101100.35
2018-09-30T14:45:11.844Z,101100.61
2018-09-30T14:47:41.839Z,101104.69
2018-09-30T14:50:11.890Z,101105.41
2018-09-30T14:52:46.820Z,101097.23
2018-09-30T14:55:15.818Z,101099.42
2018-09-30T14:57:45.829Z,101100.35
2018-09-30T15:00:14.847Z,101103.05
2018-09-30T15:02:49.611Z,101098.91
2018-09-30T15:05:18.540Z,101092.55
2018-09-30T15:07:47.517Z,101099.05
2018-09-30T15:10:16.546Z,101092.34
2018-09-30T15:12:47.057Z,101099.11
2018-09-30T15:15:21.888Z,101099.66
2018-09-30T15:17:50.996Z,101091.35
2018-09-30T15:20:24.246Z,101087.84
2018-09-30T15:22:53.137Z,101089.62
2018-09-30T15:25:32.836Z,101087.42
2018-09-30T15:28:03.768Z,101087.40
2018-09-30T15:30:39.726Z,101079.72
2018-09-30T15:33:10.756Z,101078.04
2018-09-30T15:35:40.644Z,101079.61
2018-09-30T15:38:14.317Z,101072.75
2018-09-30T15:40:44.318Z,101075.70
2018-09-30T15:43:14.478Z,101073.77
2018-09-30T15:45:47.093Z,101078.56
2018-09-30T15:48:19.799Z,101075.03
2018-09-30T15:50:52.742Z,101066.56
2018-09-30T15:53:21.919Z,101072.26
2018-09-30T15:55:57.088Z,101070.58
2018-09-30T15:58:27.020Z,101081.73
2018-09-30T16:00:56.073Z,101085.72
2018-09-30T16:03:25.494Z,101071.62
2018-09-30T16:06:07.717Z,101070.81
2018-09-30T16:08:38.483Z,101075.95
2018-09-30T16:11:07.964Z,101071.20
2018-09-30T16:13:38.949Z,101076.15
2018-09-30T16:16:08.126Z,101081.33
2018-09-30T16:18:41.064Z,101078.55
2018-09-30T16:21:14.147Z,101084.75
2018-09-30T16:23:43.057Z,101089.89
2018-09-30T16:26:13.980Z,101091.41
2018-09-30T16:28:43.011Z,101089.28
2018-09-30T16:31:11.949Z,101091.73
2018-09-30T16:33:48.890Z,101086.97
2018-09-30T16:36:18.972Z,101084.81
2018-09-30T16:41:43.489Z,101084.13
2018-09-30T16:44:14.576Z,101082.31
2018-09-30T16:46:47.250Z,101087.20
2018-09-30T16:49:16.370Z,101085.77
2018-09-30T16:51:49.620Z,101087.90
2018-09-30T16:54:18.564Z,101086.47
2018-09-30T16:56:48.820Z,101091.31
2018-09-30T16:59:28.341Z,101095.20
2018-09-30T17:01:59.715Z,101098.62
2018-09-30T17:04:32.372Z,101102.69
2018-09-30T17:07:11.410Z,101102.47
2018-09-30T17:09:42.004Z,101101.88
2018-09-30T17:12:12.540Z,101101.33
2018-09-30T17:14:43.004Z,101100.97
2018-09-30T17:17:15.703Z,101102.88
2018-09-30T17:19:48.861Z,101100.45
2018-09-30T17:22:25.272Z,101100.27
2018-09-30T17:24:54.238Z,101104.22
2018-09-30T17:27:25.338Z,101106.22
2018-09-30T17:29:58.280Z,101114.28
2018-09-30T17:32:31.229Z,101116.39
2018-09-30T17:35:00.267Z,101121.94
2018-09-30T17:37:31.199Z,101121.02
2018-09-30T17:40:00.116Z,101121.52
2018-09-30T17:42:30.044Z,101120.42
2018-09-30T17:44:59.016Z,101118.64
2018-09-30T17:47:31.248Z,101117.79
2018-09-30T17:50:04.146Z,101113.55
2018-09-30T17:52:33.033Z,101118.72
2018-09-30T17:55:01.979Z,101112.44
2018-09-30T17:57:31.005Z,101111.53
2018-09-30T18:00:05.312Z,101119.91
2018-09-30T18:02:35.269Z,101124.08
2018-09-30T18:05:05.424Z,101118.71
2018-09-30T18:07:34.364Z,101123.02
2018-09-30T18:10:03.270Z,101121.52
2018-09-30T18:12:35.894Z,101120.58
2018-09-30T18:15:13.231Z,101124.44
2018-09-30T18:17:42.282Z,101122.38
2018-09-30T18:20:14.494Z,101124.56
2018-09-30T18:22:43.846Z,101123.81
2018-09-30T18:25:13.109Z,101124.83
2018-09-30T18:27:42.495Z,101129.33
2018-09-30T18:30:12.153Z,101128.52
2018-09-30T18:32:43.276Z,101125.87
2018-09-30T18:35:12.186Z,101110.53
2018-09-30T18:37:44.949Z,101124.78
2018-09-30T18:40:13.928Z,101120.31
2018-09-30T18:42:43.742Z,101121.72
2018-09-30T18:45:17.997Z,101124.64
2018-09-30T18:47:47.909Z,101124.07
2018-09-30T18:50:16.864Z,101122.93
2018-09-30T18:52:48.992Z,101126.23
2018-09-30T18:55:18.924Z,101125.78
2018-09-30T18:57:47.877Z,101125.30
2018-09-30T19:00:16.761Z,101121.89
2018-09-30T19:02:58.153Z,101118.34
2018-09-30T19:05:28.198Z,101116.09
2018-09-30T19:07:57.438Z,101121.20
2018-09-30T19:10:26.455Z,101121.67
2018-09-30T19:13:06.197Z,101128.49
2018-09-30T19:15:39.143Z,101124.89
2018-09-30T19:18:10.135Z,101129.25
2018-09-30T19:20:39.271Z,101130.77
2018-09-30T19:23:08.834Z,101131.25
2018-09-30T19:25:40.001Z,101135.26
2018-09-30T19:28:09.225Z,101122.53
2018-09-30T19:30:38.293Z,101133.96
2018-09-30T19:33:07.398Z,101129.95
2018-09-30T19:35:42.168Z,101128.70
2018-09-30T19:38:16.645Z,101133.77
2018-09-30T19:40:46.694Z,101125.02
2018-09-30T19:43:15.853Z,101125.80
2018-09-30T19:45:46.066Z,101126.44
2018-09-30T19:48:15.121Z,101127.89
2018-09-30T19:50:44.132Z,101125.93
2018-09-30T19:53:13.829Z,101124.48
2018-09-30T19:55:45.826Z,101123.88
2018-09-30T19:58:15.754Z,101125.76
2018-09-30T20:01:06.851Z,101126.05
2018-09-30T20:03:46.121Z,101123.47
2018-09-30T20:06:15.051Z,101126.17
2018-09-30T20:08:45.010Z,101121.17
2018-09-30T20:11:16.005Z,101120.88
2018-09-30T20:13:44.969Z,101118.11
2018-09-30T20:16:15.880Z,101119.67
2018-09-30T20:18:47.004Z,101119.35
2018-09-30T20:21:16.240Z,101113.47
2018-09-30T20:23:45.189Z,101116.64
2018-09-30T20:26:14.091Z,101116.17
2018-09-30T20:28:43.250Z,101106.31
2018-09-30T20:34:31.490Z,101104.61
2018-09-30T20:37:03.792Z,101100.84
2018-09-30T20:39:39.927Z,101105.66
2018-09-30T20:42:13.683Z,101105.66
2018-09-30T20:44:44.830Z,101107.52
2018-09-30T20:47:14.894Z,101104.52
2018-09-30T20:49:48.411Z,101108.12
2018-09-30T20:52:29.723Z,101111.94
2018-09-30T20:55:09.866Z,101104.37
2018-09-30T20:57:42.868Z,101104.67
2018-09-30T21:00:30.907Z,101100.30
2018-09-30T21:03:10.273Z,101102.97
2018-09-30T21:05:50.267Z,101102.01
2018-09-30T21:08:21.662Z,101109.18
2018-09-30T21:10:54.814Z,101106.83
2018-09-30T21:13:23.732Z,101108.53
2018-09-30T21:15:53.689Z,101108.33
2018-09-30T21:18:26.041Z,101104.62
2018-09-30T21:21:04.994Z,101102.91
2018-09-30T21:23:37.292Z,101099.59
2018-09-30T21:26:06.359Z,101094.34
2018-09-30T21:28:39.962Z,101103.66
2018-09-30T21:31:27.949Z,101103.77
2018-09-30T21:34:00.738Z,101098.13
2018-09-30T21:36:30.767Z,101100.69
2018-09-30T21:39:00.723Z,101106.61
2018-09-30T21:41:43.694Z,101106.67
2018-09-30T21:44:16.520Z,101103.71
2018-09-30T21:46:45.512Z,101098.19
2018-09-30T21:49:24.980Z,101101.20
2018-09-30T21:51:53.837Z,101099.23
2018-09-30T21:54:28.337Z,101097.22
2018-09-30T21:57:03.209Z,101095.11
2018-09-30T21:59:38.224Z,101093.46
2018-09-30T22:02:21.063Z,101091.41
2018-09-30T22:04:59.585Z,101092.95
2018-09-30T22:07:34.210Z,101092.65
2018-09-30T22:10:08.269Z,101085.53
2018-09-30T22:12:44.577Z,101093.41
2018-09-30T22:15:13.594Z,101085.02
2018-09-30T22:17:42.614Z,101090.59
2018-09-30T22:20:12.568Z,101097.66
2018-09-30T22:22:55.444Z,101095.25
2018-09-30T22:25:24.474Z,101097.24
2018-09-30T22:27:53.394Z,101098.78
2018-09-30T22:30:22.266Z,101094.50
2018-09-30T22:32:51.180Z,101089.86
2018-09-30T22:35:43.659Z,101089.02
2018-09-30T22:38:12.519Z,101091.45
2018-09-30T22:40:46.232Z,101096.59
2018-09-30T22:43:15.195Z,101096.51
2018-09-30T22:48:44.610Z,101092.84
2018-09-30T22:51:19.184Z,101095.09
2018-09-30T22:53:49.143Z,101094.57
2018-09-30T22:56:23.899Z,101094.20
2018-09-30T22:58:52.789Z,101091.98
2018-09-30T23:01:21.678Z,101084.52
2018-09-30T23:04:01.693Z,101083.73
2018-09-30T23:06:38.457Z,101078.51
2018-09-30T23:09:07.901Z,101081.91
2018-09-30T23:11:36.883Z,101081.27
2018-09-30T23:14:07.139Z,101083.86
2018-09-30T23:16:36.074Z,101094.20
2018-09-30T23:19:04.971Z,101091.04
2018-09-30T23:21:33.890Z,101088.73
2018-09-30T23:24:02.805Z,101083.00
2018-09-30T23:26:31.689Z,101083.86
2018-09-30T23:29:00.570Z,101086.92
2018-09-30T23:31:29.489Z,101089.09
2018-09-30T23:33:58.421Z,101086.62
2018-09-30T23:36:30.915Z,101090.25
2018-09-30T23:39:02.990Z,101091.61
2018-09-30T23:41:32.100Z,101089.09
2018-09-30T23:44:00.998Z,101090.25
2018-09-30T23:46:29.878Z,101096.64
2018-09-30T23:52:17.229Z,101091.63
2018-09-30T23:54:52.463Z,101089.27
2018-09-30T23:57:25.370Z,101098.80
2018-09-30T23:59:54.359Z,101103.28
